BCN weather

Barcelona International Airport
Barcelona, Catalonia, Spain

Public forecast

Using degrees Celsius for public forecast. Weather courtesy of forecast.io.

METAR (pilot weather report)

Retrieved 2018/01/20 16:00 UTC (29 minutes ago):

LEBL 201600Z 23016KT 9999 FEW050 14/08 Q1016 NOSIG

TAF (pilot weather forecast)

Retrieved 2018/01/20 12:27 UTC (4 hours ago):

TAF LEBL 201100Z 2012/2112 33006KT 9999 FEW030 TX16/2013Z TN12/2107Z BECMG 2012/2014 26010KT BECMG 2018/2020 31015KT TEMPO 2022/2112 31020G35KT